createdAt,value
2018-03-06T00:00:04.259Z,72.20
2018-03-06T00:02:31.847Z,72.30
2018-03-06T00:04:59.788Z,72.20
2018-03-06T00:07:27.354Z,72.20
2018-03-06T00:09:55.236Z,72.00
2018-03-06T00:12:23.113Z,71.10
2018-03-06T00:14:51.071Z,70.70
2018-03-06T00:17:18.537Z,70.70
2018-03-06T00:19:46.094Z,70.50
2018-03-06T00:22:14.018Z,70.50
2018-03-06T00:24:41.526Z,70.50
2018-03-06T00:27:09.493Z,70.50
2018-03-06T00:29:36.966Z,70.40
2018-03-06T00:32:04.429Z,70.60
2018-03-06T00:34:31.992Z,70.60
2018-03-06T00:36:59.462Z,70.30
2018-03-06T00:39:27.017Z,70.50
2018-03-06T00:41:54.482Z,71.40
2018-03-06T00:44:22.008Z,72.20
2018-03-06T00:46:49.828Z,72.40
2018-03-06T00:49:17.690Z,72.30
2018-03-06T00:51:45.161Z,72.30
2018-03-06T00:54:13.109Z,72.40
2018-03-06T00:56:40.679Z,72.40
2018-03-06T00:59:08.154Z,72.40
2018-03-06T01:01:36.023Z,71.80
2018-03-06T01:04:03.478Z,71.80
2018-03-06T01:06:31.039Z,71.80
2018-03-06T01:08:58.961Z,71.60
2018-03-06T01:11:26.473Z,71.30
2018-03-06T01:13:54.037Z,71.40
2018-03-06T01:16:21.507Z,71.40
2018-03-06T01:18:49.057Z,71.50
2018-03-06T01:21:16.526Z,71.50
2018-03-06T01:23:44.090Z,71.60
2018-03-06T01:26:11.654Z,71.60
2018-03-06T01:28:39.130Z,71.60
2018-03-06T01:31:07.005Z,72.10
2018-03-06T01:33:34.871Z,71.90
2018-03-06T01:36:05.386Z,71.80
2018-03-06T01:38:32.847Z,71.80
2018-03-06T01:41:00.410Z,71.90
2018-03-06T01:43:27.873Z,71.80
2018-03-06T01:45:55.440Z,71.90
2018-03-06T01:48:23.000Z,71.90
2018-03-06T01:50:50.473Z,72.00
2018-03-06T01:53:18.022Z,71.90
2018-03-06T01:55:45.604Z,72.30
2018-03-06T01:58:13.070Z,72.40
2018-03-06T02:00:40.944Z,72.20
2018-03-06T02:03:08.799Z,72.20
2018-03-06T02:05:36.298Z,72.20
2018-03-06T02:08:03.761Z,71.90
2018-03-06T02:10:31.251Z,71.90
2018-03-06T02:12:59.362Z,72.10
2018-03-06T02:15:26.829Z,72.20
2018-03-06T02:17:54.291Z,72.40
2018-03-06T02:20:21.854Z,72.40
2018-03-06T02:22:49.735Z,72.20
2018-03-06T02:25:17.588Z,72.20
2018-03-06T02:27:45.065Z,72.20
2018-03-06T02:30:12.942Z,72.30
2018-03-06T02:32:40.495Z,72.30
2018-03-06T02:35:08.382Z,72.20
2018-03-06T02:37:36.263Z,72.10
2018-03-06T02:40:03.734Z,72.10
2018-03-06T02:42:31.274Z,72.40
2018-03-06T02:44:59.163Z,72.40
2018-03-06T02:47:27.098Z,72.40
2018-03-06T02:49:54.589Z,72.40
2018-03-06T02:52:22.537Z,71.90
2018-03-06T02:54:50.094Z,71.90
2018-03-06T02:57:17.593Z,71.90
2018-03-06T02:59:45.526Z,72.10
2018-03-06T03:02:13.003Z,72.10
2018-03-06T03:04:40.572Z,72.20
2018-03-06T03:07:08.460Z,72.40
2018-03-06T03:09:36.387Z,72.70
2018-03-06T03:12:03.873Z,72.70
2018-03-06T03:14:31.325Z,72.80
2018-03-06T03:16:58.795Z,72.80
2018-03-06T03:19:26.357Z,72.80
2018-03-06T03:21:54.496Z,72.80
2018-03-06T03:24:21.968Z,72.90
2018-03-06T03:26:49.433Z,72.90
2018-03-06T03:29:16.918Z,72.80
2018-03-06T03:31:44.479Z,72.50
2018-03-06T03:34:11.943Z,72.40
2018-03-06T03:36:39.435Z,72.50
2018-03-06T03:39:07.306Z,72.60
2018-03-06T03:41:35.196Z,72.40
2018-03-06T03:44:02.679Z,72.40
2018-03-06T03:46:30.134Z,72.90
2018-03-06T03:48:57.586Z,73.40
2018-03-06T03:51:25.095Z,73.80
2018-03-06T03:53:52.564Z,73.90
2018-03-06T03:56:20.119Z,73.80
2018-03-06T03:58:47.574Z,73.70
2018-03-06T04:01:15.146Z,73.60
2018-03-06T04:03:43.475Z,73.30
2018-03-06T04:06:10.935Z,73.30
2018-03-06T04:08:38.446Z,73.30
2018-03-06T04:11:05.918Z,73.40
2018-03-06T04:13:33.385Z,73.40
2018-03-06T04:16:00.852Z,73.60
2018-03-06T04:18:28.814Z,73.40
2018-03-06T04:20:56.688Z,73.70
2018-03-06T04:23:24.163Z,73.70
2018-03-06T04:25:51.626Z,73.80
2018-03-06T04:28:19.485Z,74.10
2018-03-06T04:30:47.029Z,74.10
2018-03-06T04:33:14.612Z,74.20
2018-03-06T04:35:42.097Z,74.30
2018-03-06T04:38:09.967Z,74.20
2018-03-06T04:40:38.255Z,74.30
2018-03-06T04:43:05.735Z,74.30
2018-03-06T04:45:33.215Z,74.50
2018-03-06T04:48:00.812Z,75.00
2018-03-06T04:50:28.282Z,75.00
2018-03-06T04:52:56.136Z,74.80
2018-03-06T04:55:23.601Z,74.80
2018-03-06T04:57:51.085Z,74.70
2018-03-06T05:00:18.949Z,74.30
2018-03-06T05:02:46.910Z,74.20
2018-03-06T05:05:14.392Z,74.20
2018-03-06T05:07:42.249Z,74.20
2018-03-06T05:10:09.729Z,74.20
2018-03-06T05:12:37.598Z,74.20
2018-03-06T05:15:05.452Z,74.20
2018-03-06T05:17:33.259Z,74.20
2018-03-06T05:20:00.738Z,74.20
2018-03-06T05:22:28.259Z,74.10
2018-03-06T05:24:56.232Z,74.30
2018-03-06T05:27:24.088Z,74.30
2018-03-06T05:29:51.577Z,74.30
2018-03-06T05:32:19.437Z,74.50
2018-03-06T05:34:47.292Z,74.20
2018-03-06T05:37:14.846Z,74.20
2018-03-06T05:39:42.451Z,74.10
2018-03-06T05:42:09.976Z,74.20
2018-03-06T05:44:37.534Z,74.10
2018-03-06T05:47:04.996Z,74.10
2018-03-06T05:49:32.476Z,74.10
2018-03-06T05:52:00.039Z,74.00
2018-03-06T05:54:27.902Z,73.80
2018-03-06T05:56:55.366Z,73.70
2018-03-06T05:59:22.946Z,73.90
2018-03-06T06:01:50.814Z,74.20
2018-03-06T06:04:18.294Z,74.20
2018-03-06T06:06:46.148Z,74.30
2018-03-06T06:09:13.627Z,74.30
2018-03-06T06:11:41.489Z,74.30
2018-03-06T06:14:09.437Z,74.50
2018-03-06T06:16:36.926Z,74.50
2018-03-06T06:19:04.768Z,74.60
2018-03-06T06:21:32.234Z,74.60
2018-03-06T06:23:59.723Z,74.60
2018-03-06T06:26:27.669Z,74.50
2018-03-06T06:28:55.244Z,74.50
2018-03-06T06:31:22.734Z,74.30
2018-03-06T06:33:50.197Z,74.50
2018-03-06T06:36:17.671Z,74.70
2018-03-06T06:38:45.138Z,74.60
2018-03-06T06:41:12.604Z,74.60
2018-03-06T06:43:40.112Z,74.50
2018-03-06T06:46:07.575Z,74.40
2018-03-06T06:48:35.049Z,74.30
2018-03-06T06:51:02.517Z,74.40
2018-03-06T06:53:30.383Z,74.20
2018-03-06T06:55:58.241Z,74.20
2018-03-06T06:58:26.207Z,74.20
2018-03-06T07:00:53.752Z,74.20
2018-03-06T07:03:21.212Z,74.20
2018-03-06T07:05:48.686Z,74.20
2018-03-06T07:08:16.755Z,74.20
2018-03-06T07:10:44.218Z,74.20
2018-03-06T07:13:11.700Z,74.20
2018-03-06T07:15:39.164Z,74.10
2018-03-06T07:18:06.717Z,74.00
2018-03-06T07:20:34.196Z,73.90
2018-03-06T07:23:01.742Z,73.80
2018-03-06T07:25:29.229Z,73.70
2018-03-06T07:27:57.081Z,73.50
2018-03-06T07:30:24.654Z,73.50
2018-03-06T07:32:52.131Z,73.40
2018-03-06T07:35:19.982Z,72.40
2018-03-06T07:37:47.458Z,72.40
2018-03-06T07:40:15.333Z,72.20
2018-03-06T07:42:43.208Z,72.20
2018-03-06T07:45:11.146Z,72.00
2018-03-06T07:47:38.608Z,72.00
2018-03-06T07:50:06.074Z,71.60
2018-03-06T07:52:33.532Z,71.40
2018-03-06T07:55:01.106Z,70.90
2018-03-06T07:57:28.583Z,70.60
2018-03-06T07:59:56.496Z,70.40
2018-03-06T08:02:23.999Z,70.40
2018-03-06T08:04:51.492Z,70.00
2018-03-06T08:07:19.396Z,69.40
2018-03-06T08:09:46.875Z,69.40
2018-03-06T08:12:14.353Z,68.90
2018-03-06T08:14:41.824Z,68.40
2018-03-06T08:17:09.276Z,68.00
2018-03-06T08:19:36.878Z,67.30
2018-03-06T08:22:04.358Z,67.20
2018-03-06T08:24:31.816Z,66.80
2018-03-06T08:26:59.326Z,66.80
2018-03-06T08:29:26.777Z,66.30
2018-03-06T08:31:54.373Z,66.10
2018-03-06T08:34:21.921Z,66.40
2018-03-06T08:36:49.479Z,66.00
2018-03-06T08:39:17.485Z,66.00
2018-03-06T08:41:45.370Z,65.20
2018-03-06T08:44:13.360Z,64.70
2018-03-06T08:46:40.854Z,64.70
2018-03-06T08:49:08.314Z,64.80
2018-03-06T08:51:35.919Z,64.80
2018-03-06T08:54:03.382Z,64.10
2018-03-06T08:56:31.266Z,64.00
2018-03-06T08:58:59.145Z,63.60
2018-03-06T09:01:26.641Z,63.60
2018-03-06T09:03:54.101Z,63.20
2018-03-06T09:06:21.555Z,63.10
2018-03-06T09:08:49.070Z,62.70
2018-03-06T09:11:16.945Z,62.50
2018-03-06T09:13:44.801Z,61.90
2018-03-06T09:16:12.278Z,61.90
2018-03-06T09:18:40.125Z,61.10
2018-03-06T09:21:07.720Z,61.10
2018-03-06T09:23:35.576Z,61.00
2018-03-06T09:26:03.042Z,61.00
2018-03-06T09:28:30.914Z,60.80
2018-03-06T09:30:58.871Z,60.60
2018-03-06T09:33:26.336Z,60.60
2018-03-06T09:35:53.810Z,60.70
2018-03-06T09:38:21.675Z,60.20
2018-03-06T09:40:49.155Z,60.20
2018-03-06T09:43:17.098Z,59.70
2018-03-06T09:45:44.650Z,59.70
2018-03-06T09:48:12.102Z,59.50
2018-03-06T09:50:39.573Z,59.60
2018-03-06T09:53:07.130Z,59.50
2018-03-06T09:55:34.615Z,59.00
2018-03-06T09:58:03.530Z,58.80
2018-03-06T10:00:31.392Z,58.60
2018-03-06T10:02:59.008Z,58.60
2018-03-06T10:05:26.509Z,58.30
2018-03-06T10:07:53.996Z,58.20
2018-03-06T10:10:21.868Z,57.70
2018-03-06T10:12:49.733Z,57.60
2018-03-06T10:15:17.802Z,57.60
2018-03-06T10:17:45.268Z,57.60
2018-03-06T10:20:13.414Z,57.40
2018-03-06T10:22:40.879Z,57.40
2018-03-06T10:25:08.349Z,57.30
2018-03-06T10:27:35.841Z,57.10
2018-03-06T10:30:03.336Z,56.70
2018-03-06T10:32:30.832Z,56.80
2018-03-06T10:34:58.288Z,56.60
2018-03-06T10:37:25.782Z,56.40
2018-03-06T10:39:53.661Z,56.80
2018-03-06T10:42:21.529Z,56.70
2018-03-06T10:44:49.912Z,56.50
2018-03-06T10:47:17.801Z,56.40
2018-03-06T10:49:45.258Z,56.40
2018-03-06T10:52:13.209Z,56.30
2018-03-06T10:54:40.747Z,56.30
2018-03-06T10:57:08.239Z,56.70
2018-03-06T10:59:35.773Z,56.60
2018-03-06T11:02:04.174Z,56.80
2018-03-06T11:04:32.056Z,56.50
2018-03-06T11:06:59.884Z,56.50
2018-03-06T11:09:27.384Z,56.10
2018-03-06T11:11:54.907Z,55.90
2018-03-06T11:14:22.390Z,55.90
2018-03-06T11:16:49.907Z,56.00
2018-03-06T11:19:17.373Z,55.60
2018-03-06T11:21:45.108Z,55.20
2018-03-06T11:24:12.602Z,55.30
2018-03-06T11:26:40.137Z,55.20
2018-03-06T11:29:08.023Z,55.30
2018-03-06T11:31:35.733Z,55.30
2018-03-06T11:34:03.252Z,55.50
2018-03-06T11:36:31.118Z,54.60
2018-03-06T11:38:59.498Z,54.30
2018-03-06T11:41:27.457Z,53.90
2018-03-06T11:43:55.175Z,53.90
2018-03-06T11:46:22.682Z,54.10
2018-03-06T11:48:50.274Z,54.10
2018-03-06T11:51:18.169Z,54.60
2018-03-06T11:53:45.723Z,54.60
2018-03-06T11:56:13.214Z,54.50
2018-03-06T11:58:40.695Z,54.20
2018-03-06T12:01:08.320Z,54.00
2018-03-06T12:03:35.882Z,53.60
2018-03-06T12:06:03.520Z,53.60
2018-03-06T12:08:31.391Z,53.10
2018-03-06T12:10:59.273Z,53.00
2018-03-06T12:13:27.194Z,53.10
2018-03-06T12:15:54.705Z,53.10
2018-03-06T12:18:22.583Z,52.90
2018-03-06T12:20:50.094Z,52.90
2018-03-06T12:23:17.728Z,52.60
2018-03-06T12:25:45.200Z,52.50
2018-03-06T12:28:12.860Z,52.40
2018-03-06T12:30:40.644Z,52.80
2018-03-06T12:33:08.200Z,52.30
2018-03-06T12:35:35.664Z,52.70
2018-03-06T12:38:03.150Z,52.60
2018-03-06T12:40:30.678Z,52.50
2018-03-06T12:42:58.152Z,52.60
2018-03-06T12:45:25.654Z,52.20
2018-03-06T12:47:53.208Z,52.40
2018-03-06T12:50:20.696Z,52.10
2018-03-06T12:52:48.598Z,52.30
2018-03-06T12:55:16.080Z,52.30
2018-03-06T12:57:43.558Z,51.90
2018-03-06T13:00:11.040Z,51.90
2018-03-06T13:02:38.608Z,51.80
2018-03-06T13:05:06.100Z,51.50
2018-03-06T13:07:33.970Z,52.00
2018-03-06T13:10:01.477Z,52.00
2018-03-06T13:12:28.964Z,51.70
2018-03-06T13:14:56.541Z,51.90
2018-03-06T13:17:24.038Z,51.90
2018-03-06T13:19:51.511Z,51.40
2018-03-06T13:22:19.023Z,51.70
2018-03-06T13:24:46.902Z,51.60
2018-03-06T13:27:15.630Z,51.80
2018-03-06T13:29:43.117Z,51.80
2018-03-06T13:32:10.746Z,51.60
2018-03-06T13:34:38.425Z,51.70
2018-03-06T13:37:06.393Z,51.20
2018-03-06T13:39:34.023Z,51.10
2018-03-06T13:42:01.584Z,50.90
2018-03-06T13:44:29.048Z,51.10
2018-03-06T13:46:56.588Z,51.00
2018-03-06T13:49:24.078Z,50.80
2018-03-06T13:51:51.535Z,50.70
2018-03-06T13:54:19.422Z,50.20
2018-03-06T13:56:47.367Z,50.40
2018-03-06T13:59:14.853Z,50.40
2018-03-06T14:01:42.916Z,50.80
2018-03-06T14:04:10.384Z,50.80
2018-03-06T14:06:38.267Z,50.90
2018-03-06T14:09:06.162Z,50.60
2018-03-06T14:11:33.620Z,50.60
2018-03-06T14:14:01.135Z,50.90
2018-03-06T14:16:28.610Z,51.10
2018-03-06T14:18:56.474Z,50.70
2018-03-06T14:21:23.946Z,50.70
2018-03-06T14:23:51.830Z,50.80
2018-03-06T14:26:19.690Z,50.70
2018-03-06T14:28:47.240Z,50.70
2018-03-06T14:31:14.711Z,50.80
2018-03-06T14:33:42.265Z,50.70
2018-03-06T14:36:09.829Z,50.50
2018-03-06T14:38:37.296Z,50.30
2018-03-06T14:41:04.762Z,50.40
2018-03-06T14:43:32.255Z,50.50
2018-03-06T14:45:59.700Z,50.70
2018-03-06T14:48:27.552Z,50.00
2018-03-06T14:50:55.110Z,50.00
2018-03-06T14:53:22.665Z,49.90
2018-03-06T14:55:50.158Z,49.80
2018-03-06T14:58:17.652Z,49.90
2018-03-06T15:00:45.160Z,50.00
2018-03-06T15:03:12.661Z,49.80
2018-03-06T15:05:40.153Z,49.80
2018-03-06T15:08:07.614Z,50.00
2018-03-06T15:10:35.090Z,50.10
2018-03-06T15:13:02.585Z,49.90
2018-03-06T15:15:30.050Z,49.80
2018-03-06T15:17:57.626Z,49.60
2018-03-06T15:20:25.069Z,49.90
2018-03-06T15:22:52.538Z,50.00
2018-03-06T15:25:20.013Z,49.80
2018-03-06T15:27:47.875Z,50.00
2018-03-06T15:30:15.759Z,50.10
2018-03-06T15:32:43.632Z,50.40
2018-03-06T15:35:11.508Z,50.30
2018-03-06T15:37:39.382Z,50.40
2018-03-06T15:40:06.891Z,50.40
2018-03-06T15:42:34.406Z,50.40
2018-03-06T15:45:02.366Z,50.80
2018-03-06T15:47:30.268Z,50.70
2018-03-06T15:49:57.762Z,50.70
2018-03-06T15:52:25.922Z,51.30
2018-03-06T15:54:53.451Z,51.70
2018-03-06T15:57:21.344Z,51.70
2018-03-06T15:59:48.844Z,51.70
2018-03-06T16:02:16.439Z,51.70
2018-03-06T16:04:44.010Z,52.00
2018-03-06T16:07:11.924Z,52.40
2018-03-06T16:09:39.427Z,52.40
2018-03-06T16:12:07.421Z,52.60
2018-03-06T16:14:35.319Z,52.80
2018-03-06T16:17:02.877Z,52.80
2018-03-06T16:19:30.437Z,53.10
2018-03-06T16:21:57.978Z,53.20
2018-03-06T16:24:25.946Z,53.50
2018-03-06T16:26:53.446Z,53.50
2018-03-06T16:29:21.329Z,53.60
2018-03-06T16:31:49.122Z,53.70
2018-03-06T16:34:16.731Z,53.80
2018-03-06T16:36:44.622Z,54.10
2018-03-06T16:39:12.118Z,54.00
2018-03-06T16:41:39.630Z,54.10
2018-03-06T16:44:07.566Z,54.40
2018-03-06T16:46:35.059Z,54.40
2018-03-06T16:49:02.953Z,54.90
2018-03-06T16:51:30.453Z,54.90
2018-03-06T16:53:57.961Z,55.10
2018-03-06T16:56:25.860Z,55.60
2018-03-06T16:58:53.387Z,55.60
2018-03-06T17:01:20.967Z,55.80
2018-03-06T17:03:48.860Z,56.20
2018-03-06T17:06:16.385Z,56.20
2018-03-06T17:08:43.940Z,56.50
2018-03-06T17:11:11.424Z,56.80
2018-03-06T17:13:39.327Z,57.10
2018-03-06T17:16:07.013Z,57.10
2018-03-06T17:18:34.478Z,57.30
2018-03-06T17:21:01.986Z,57.50
2018-03-06T17:23:29.884Z,58.10
2018-03-06T17:25:57.391Z,58.10
2018-03-06T17:28:24.952Z,58.40
2018-03-06T17:30:52.680Z,58.60
2018-03-06T17:33:20.212Z,58.80
2018-03-06T17:35:48.113Z,59.20
2018-03-06T17:38:17.031Z,59.20
2018-03-06T17:40:44.625Z,59.40
2018-03-06T17:43:12.126Z,59.80
2018-03-06T17:45:39.686Z,60.20
2018-03-06T17:48:07.245Z,60.30
2018-03-06T17:50:35.153Z,60.70
2018-03-06T17:53:02.702Z,60.80
2018-03-06T17:55:30.217Z,60.90
2018-03-06T17:57:57.731Z,61.30
2018-03-06T18:00:25.239Z,61.40
2018-03-06T18:02:52.802Z,61.40
2018-03-06T18:05:20.442Z,61.60
2018-03-06T18:07:48.104Z,61.70
2018-03-06T18:10:16.028Z,61.80
2018-03-06T18:12:43.580Z,62.00
2018-03-06T18:15:11.159Z,62.10
2018-03-06T18:17:39.289Z,62.40
2018-03-06T18:20:06.905Z,62.40
2018-03-06T18:22:34.643Z,62.50
2018-03-06T18:25:02.260Z,62.70
2018-03-06T18:27:29.777Z,62.70
2018-03-06T18:29:57.361Z,62.60
2018-03-06T18:32:25.370Z,62.80
2018-03-06T18:34:52.879Z,62.80
2018-03-06T18:37:20.387Z,62.70
2018-03-06T18:39:47.911Z,62.60
2018-03-06T18:42:15.454Z,62.90
2018-03-06T18:44:43.063Z,63.00
2018-03-06T18:47:11.151Z,63.10
2018-03-06T19:03:10.225Z,64.20
2018-03-06T19:05:49.723Z,64.40
2018-03-06T19:08:18.514Z,64.90
2018-03-06T19:10:46.466Z,64.80
2018-03-06T19:13:13.998Z,64.80
2018-03-06T19:15:41.558Z,65.00
2018-03-06T19:18:09.127Z,65.00
2018-03-06T19:20:36.659Z,65.00
2018-03-06T19:23:04.662Z,65.10
2018-03-06T19:25:32.211Z,65.20
2018-03-06T19:27:59.795Z,65.10
2018-03-06T19:30:27.437Z,64.80
2018-03-06T19:32:54.964Z,64.70
2018-03-06T19:35:22.534Z,64.70
2018-03-06T19:37:50.081Z,64.90
2018-03-06T19:40:17.554Z,65.00
2018-03-06T19:42:45.145Z,65.10
2018-03-06T19:45:13.037Z,65.40
2018-03-06T19:47:40.555Z,65.40
2018-03-06T19:50:08.021Z,65.50
2018-03-06T19:52:35.559Z,65.60
2018-03-06T19:55:03.036Z,65.90
2018-03-06T19:57:30.541Z,65.90
2018-03-06T19:59:58.081Z,66.00
2018-03-06T20:02:25.977Z,66.30
2018-03-06T20:04:53.477Z,66.30
2018-03-06T20:07:21.063Z,66.40
2018-03-06T20:09:48.543Z,66.40
2018-03-06T20:12:16.527Z,66.40
2018-03-06T20:14:49.981Z,66.40
2018-03-06T20:17:17.596Z,66.40
2018-03-06T20:19:45.104Z,66.40
2018-03-06T20:22:12.746Z,66.40
2018-03-06T20:24:46.078Z,66.50
2018-03-06T20:27:13.718Z,66.70
2018-03-06T20:29:41.259Z,66.80
2018-03-06T20:32:14.699Z,67.00
2018-03-06T20:34:42.289Z,67.00
2018-03-06T20:37:10.869Z,67.10
2018-03-06T20:39:44.572Z,67.10
2018-03-06T20:42:12.878Z,67.10
2018-03-06T20:44:40.737Z,67.30
2018-03-06T20:47:15.192Z,67.20
2018-03-06T20:49:42.711Z,67.20
2018-03-06T20:52:10.674Z,67.20
2018-03-06T20:54:44.055Z,67.20
2018-03-06T20:57:11.537Z,67.20
2018-03-06T20:59:38.997Z,67.40
2018-03-06T21:02:06.485Z,67.60
2018-03-06T21:04:34.454Z,68.00
2018-03-06T21:07:02.318Z,68.20
2018-03-06T21:09:30.283Z,68.90
2018-03-06T21:11:57.759Z,68.90
2018-03-06T21:14:25.712Z,69.40
2018-03-06T21:16:53.235Z,69.40
2018-03-06T21:19:20.766Z,70.00
2018-03-06T21:21:48.315Z,70.20
2018-03-06T21:24:15.858Z,70.30
2018-03-06T21:26:43.429Z,70.30
2018-03-06T21:29:11.049Z,70.50
2018-03-06T21:31:38.552Z,70.20
2018-03-06T21:34:06.029Z,70.50
2018-03-06T21:36:34.363Z,70.80
2018-03-06T21:39:02.039Z,71.00
2018-03-06T21:41:29.521Z,71.00
2018-03-06T21:43:57.083Z,71.20
2018-03-06T21:46:24.562Z,71.40
2018-03-06T21:48:52.022Z,72.70
2018-03-06T21:51:19.581Z,73.40
2018-03-06T21:53:47.442Z,74.30
2018-03-06T21:56:14.907Z,75.20
2018-03-06T21:58:42.807Z,75.80
2018-03-06T22:01:10.657Z,76.90
2018-03-06T22:03:38.642Z,76.90
2018-03-06T22:06:06.112Z,78.40
2018-03-06T22:08:33.984Z,80.00
2018-03-06T22:11:01.850Z,80.10
2018-03-06T22:13:29.385Z,80.10
2018-03-06T22:15:56.863Z,80.20
2018-03-06T22:18:24.366Z,80.40
2018-03-06T22:20:51.857Z,80.30
2018-03-06T22:23:19.323Z,80.30
2018-03-06T22:25:46.896Z,80.20
2018-03-06T22:28:14.358Z,80.00
2018-03-06T22:30:42.327Z,79.70
2018-03-06T22:33:09.798Z,79.40
2018-03-06T22:35:38.223Z,79.00
2018-03-06T22:38:06.163Z,78.60
2018-03-06T22:40:33.723Z,78.60
2018-03-06T22:43:01.217Z,78.60
2018-03-06T22:45:29.085Z,78.40
2018-03-06T22:47:56.556Z,78.40
2018-03-06T22:50:24.424Z,78.30
2018-03-06T22:52:52.299Z,78.30
2018-03-06T22:55:20.166Z,78.30
2018-03-06T22:57:48.038Z,78.40
2018-03-06T23:00:15.940Z,78.40
2018-03-06T23:02:43.421Z,78.40
2018-03-06T23:05:10.884Z,78.30
2018-03-06T23:07:38.376Z,78.40
2018-03-06T23:10:05.863Z,78.20
2018-03-06T23:12:33.402Z,78.20
2018-03-06T23:15:00.897Z,78.20
2018-03-06T23:17:28.833Z,78.40
2018-03-06T23:19:56.282Z,78.40
2018-03-06T23:22:23.766Z,78.40
2018-03-06T23:24:51.301Z,78.40
2018-03-06T23:27:18.734Z,78.30
2018-03-06T23:29:46.247Z,78.30
2018-03-06T23:32:13.702Z,78.20
2018-03-06T23:34:41.162Z,78.10
2018-03-06T23:37:08.620Z,78.00
2018-03-06T23:39:36.116Z,77.90
2018-03-06T23:42:03.994Z,77.60
2018-03-06T23:44:32.041Z,77.60
2018-03-06T23:46:59.509Z,77.60
2018-03-06T23:49:27.366Z,77.60
2018-03-06T23:51:54.931Z,77.60
2018-03-06T23:54:22.408Z,77.50
2018-03-06T23:56:49.953Z,77.40
2018-03-06T23:59:17.413Z,77.40
